Summerhill, Pennsylvania
Current Conditions -  °F | °C
As of 3:54 AM on Wednesday 22 Oct 2014 (Local Time) from KJST Reporting Station
Overcast Overcast  
Wind Chill: 42°   Ceiling: 400
Heat Index: 46°   Visibility: 7mi
Dew Point: 44°   Wind: 8mph
Humidity: 93%   Direction: 350°N
Pressure: 29.96"   Gusts: NA
Location:  40.38°N, 78.76°W
Report Text: KJST 220754Z AUTO 35007KT 7SM OVC004 08/07 A2996 RMK AO2 RAE08 CIG 003V007 SLP154 P0000 T00780067
Loading
Personal Weather Stations






























Interactive Weather Map
Tropical Storm Tracking
New forecast layout! Learn more

10-Day Weather Forecast

Advertisements
Track Severe Weather on mobile